aviador You're here:

KS32 Decoded Metar

in
Report Time2017-03-23 23:55:00
UTC Time2017-03-24 00:04:36
Flight Rules mvfr MVFR
Wind010° at 05 kt
W.Rank010° ranks 20
Current wind is below 010° avg. (10.6)
Visibility8047 m
Phenomena:Mist
Clouds:Overcast 022 Hf
Ceiling2,200 ft
Temp02°C
Dew Point02°C (100% RH)
AAT-1.5°C
QNH1008 hPa
Raw Report
METAR KS32 232355Z AUTO 01005KT 5SM BR OVC022 02/02 A2978 RMK AO2=

Extra information for KS32:More info

Social comments